createdAt,value
2018-09-09T00:00:55.816Z,9.06
2018-09-09T00:01:55.798Z,9.08
2018-09-09T00:02:56.104Z,9.05
2018-09-09T00:03:56.375Z,9.16
2018-09-09T00:04:55.799Z,9.1
2018-09-09T00:05:56.159Z,9.14
2018-09-09T00:06:55.973Z,9.33
2018-09-09T00:07:55.763Z,9.27
2018-09-09T00:08:55.985Z,9.11
2018-09-09T00:09:55.908Z,9.01
2018-09-09T00:10:55.764Z,9.12
2018-09-09T00:11:56.107Z,9.27
2018-09-09T00:12:55.900Z,9.25
2018-09-09T00:13:55.906Z,9.06
2018-09-09T00:14:55.831Z,9.08
2018-09-09T00:15:55.852Z,9.06
2018-09-09T00:16:55.737Z,9.18
2018-09-09T00:17:55.995Z,9.08
2018-09-09T00:18:55.767Z,9.06
2018-09-09T00:19:55.796Z,9.09
2018-09-09T00:20:55.780Z,9.04
2018-09-09T00:21:56.035Z,9.03
2018-09-09T00:22:55.809Z,9.05
2018-09-09T00:23:55.976Z,8.97
2018-09-09T00:24:55.778Z,8.94
2018-09-09T00:25:55.897Z,9.22
2018-09-09T00:26:55.764Z,9.09
2018-09-09T00:27:55.798Z,9.03
2018-09-09T00:28:55.771Z,8.96
2018-09-09T00:29:55.786Z,8.97
2018-09-09T00:30:55.766Z,9.04
2018-09-09T00:31:55.763Z,8.89
2018-09-09T00:32:55.762Z,8.93
2018-09-09T00:33:55.738Z,8.91
2018-09-09T00:34:56.084Z,8.94
2018-09-09T00:35:55.729Z,8.99
2018-09-09T00:36:55.797Z,9.09
2018-09-09T00:37:55.749Z,8.98
2018-09-09T00:38:55.815Z,9.08
2018-09-09T00:39:55.818Z,9.01
2018-09-09T00:40:55.743Z,8.85
2018-09-09T00:41:55.762Z,8.93
2018-09-09T00:42:55.789Z,9.12
2018-09-09T00:43:55.752Z,9.13
2018-09-09T00:44:55.781Z,9.06
2018-09-09T00:45:55.732Z,9.11
2018-09-09T00:46:55.790Z,9.1
2018-09-09T00:47:56.218Z,9.06
2018-09-09T00:48:55.750Z,9.08
2018-09-09T00:49:56.052Z,8.99
2018-09-09T00:50:55.855Z,9.07
2018-09-09T00:51:55.728Z,8.94
2018-09-09T00:52:55.758Z,9.07
2018-09-09T00:53:55.800Z,8.94
2018-09-09T00:54:55.783Z,8.9
2018-09-09T00:55:55.759Z,9.03
2018-09-09T00:56:55.854Z,8.97
2018-09-09T00:57:55.731Z,8.89
2018-09-09T00:58:55.750Z,8.93
2018-09-09T00:59:55.876Z,8.94
2018-09-09T01:00:55.750Z,8.85
2018-09-09T01:01:55.718Z,8.94
2018-09-09T01:02:55.930Z,8.9
2018-09-09T01:03:55.790Z,8.94
2018-09-09T01:04:55.811Z,8.88
2018-09-09T01:05:55.902Z,8.82
2018-09-09T01:06:55.745Z,8.82
2018-09-09T01:07:55.862Z,8.76
2018-09-09T01:08:55.739Z,8.8
2018-09-09T01:09:56.176Z,8.83
2018-09-09T01:10:55.742Z,8.72
2018-09-09T01:11:56.271Z,8.78
2018-09-09T01:12:55.769Z,8.8
2018-09-09T01:13:55.811Z,8.82
2018-09-09T01:14:56.205Z,8.87
2018-09-09T01:15:56.307Z,8.82
2018-09-09T01:16:55.814Z,8.82
2018-09-09T01:17:56.328Z,8.79
2018-09-09T01:18:55.909Z,8.88
2018-09-09T01:19:56.023Z,8.86
2018-09-09T01:20:56.172Z,8.73
2018-09-09T01:21:56.277Z,8.74
2018-09-09T01:22:55.804Z,8.76
2018-09-09T01:23:55.775Z,8.68
2018-09-09T01:24:55.855Z,8.67
2018-09-09T01:25:55.753Z,8.71
2018-09-09T01:26:55.755Z,8.73
2018-09-09T01:27:55.726Z,8.68
2018-09-09T01:28:55.761Z,8.75
2018-09-09T01:29:55.875Z,8.73
2018-09-09T01:30:55.731Z,8.83
2018-09-09T01:31:55.951Z,8.82
2018-09-09T01:32:55.757Z,8.78
2018-09-09T01:33:55.727Z,8.93
2018-09-09T01:34:56.110Z,8.75
2018-09-09T01:35:55.742Z,8.86
2018-09-09T01:36:55.791Z,8.94
2018-09-09T01:37:55.755Z,8.89
2018-09-09T01:38:55.714Z,8.85
2018-09-09T01:39:55.820Z,8.84
2018-09-09T01:40:55.823Z,8.93
2018-09-09T01:41:55.745Z,8.82
2018-09-09T01:42:55.914Z,8.8
2018-09-09T01:43:56.309Z,8.92
2018-09-09T01:44:56.096Z,8.89
2018-09-09T01:45:55.718Z,8.89
2018-09-09T01:46:55.793Z,8.95
2018-09-09T01:47:55.733Z,8.82
2018-09-09T01:48:55.730Z,8.79
2018-09-09T01:49:55.890Z,8.94
2018-09-09T01:50:55.727Z,8.93
2018-09-09T01:51:55.826Z,8.98
2018-09-09T01:52:55.791Z,8.83
2018-09-09T01:53:55.734Z,8.87
2018-09-09T01:54:55.748Z,8.87
2018-09-09T01:55:55.727Z,8.9
2018-09-09T01:56:55.854Z,8.83
2018-09-09T01:57:55.812Z,8.79
2018-09-09T01:58:56.088Z,8.93
2018-09-09T01:59:55.731Z,8.82
2018-09-09T02:00:55.729Z,8.93
2018-09-09T02:01:55.789Z,8.86
2018-09-09T02:02:56.030Z,8.95
2018-09-09T02:03:55.741Z,8.86
2018-09-09T02:04:55.788Z,8.86
2018-09-09T02:05:55.818Z,8.88
2018-09-09T02:06:55.797Z,8.97
2018-09-09T02:07:56.102Z,8.97
2018-09-09T02:08:55.798Z,8.95
2018-09-09T02:09:56.025Z,8.89
2018-09-09T02:10:55.845Z,8.93
2018-09-09T02:11:56.072Z,8.97
2018-09-09T02:12:55.903Z,8.92
2018-09-09T02:13:55.899Z,8.94
2018-09-09T02:14:55.902Z,8.9
2018-09-09T02:15:56.360Z,9.03
2018-09-09T02:16:55.961Z,8.96
2018-09-09T02:17:56.153Z,8.9
2018-09-09T02:18:55.788Z,8.89
2018-09-09T02:19:55.765Z,8.86
2018-09-09T02:20:55.742Z,8.88
2018-09-09T02:21:55.714Z,8.88
2018-09-09T02:22:55.760Z,8.81
2018-09-09T02:23:55.848Z,8.96
2018-09-09T02:24:56.176Z,9.01
2018-09-09T02:25:56.338Z,8.87
2018-09-09T02:26:55.813Z,8.81
2018-09-09T02:27:55.708Z,8.89
2018-09-09T02:28:56.186Z,8.92
2018-09-09T02:29:55.783Z,8.92
2018-09-09T02:30:55.857Z,8.9
2018-09-09T02:31:55.765Z,8.94
2018-09-09T02:32:55.700Z,8.89
2018-09-09T02:33:55.708Z,8.93
2018-09-09T02:34:55.720Z,9
2018-09-09T02:35:55.737Z,8.86
2018-09-09T02:36:55.737Z,8.87
2018-09-09T02:37:56.176Z,8.74
2018-09-09T02:38:55.855Z,8.81
2018-09-09T02:39:55.757Z,8.83
2018-09-09T02:40:55.799Z,8.91
2018-09-09T02:41:55.739Z,8.79
2018-09-09T02:42:55.751Z,8.81
2018-09-09T02:43:56.097Z,8.8
2018-09-09T02:44:56.095Z,8.82
2018-09-09T02:45:55.780Z,8.73
2018-09-09T02:46:55.773Z,8.81
2018-09-09T02:47:55.791Z,8.77
2018-09-09T02:48:55.694Z,8.88
2018-09-09T02:49:55.719Z,8.76
2018-09-09T02:50:55.766Z,8.86
2018-09-09T02:51:55.811Z,8.99
2018-09-09T02:52:55.710Z,8.9
2018-09-09T02:53:55.818Z,8.8
2018-09-09T02:54:55.783Z,8.86
2018-09-09T02:55:55.697Z,8.86
2018-09-09T02:56:55.736Z,8.87
2018-09-09T02:57:55.885Z,8.95
2018-09-09T02:58:55.870Z,8.87
2018-09-09T02:59:55.764Z,8.92
2018-09-09T03:00:55.803Z,8.86
2018-09-09T03:01:55.871Z,8.86
2018-09-09T03:02:55.677Z,8.73
2018-09-09T03:03:56.089Z,8.69
2018-09-09T03:04:55.700Z,8.84
2018-09-09T03:05:55.836Z,8.69
2018-09-09T03:06:55.704Z,8.68
2018-09-09T03:07:55.716Z,8.6
2018-09-09T03:08:55.761Z,8.69
2018-09-09T03:09:55.743Z,8.61
2018-09-09T03:10:55.728Z,8.64
2018-09-09T03:11:55.714Z,8.59
2018-09-09T03:12:55.684Z,8.6
2018-09-09T03:13:55.797Z,8.63
2018-09-09T03:14:55.857Z,8.81
2018-09-09T03:15:55.697Z,8.77
2018-09-09T03:16:55.712Z,8.68
2018-09-09T03:17:55.688Z,8.81
2018-09-09T03:18:55.700Z,8.74
2018-09-09T03:19:55.683Z,8.71
2018-09-09T03:20:55.686Z,8.69
2018-09-09T03:21:55.678Z,8.77
2018-09-09T03:22:55.679Z,8.81
2018-09-09T03:23:55.686Z,8.84
2018-09-09T03:24:55.857Z,8.7
2018-09-09T03:25:55.686Z,8.7
2018-09-09T03:26:55.708Z,8.75
2018-09-09T03:27:55.800Z,8.71
2018-09-09T03:28:56.087Z,8.58
2018-09-09T03:29:55.888Z,8.59
2018-09-09T03:30:55.769Z,8.59
2018-09-09T03:31:55.743Z,8.78
2018-09-09T03:32:55.661Z,8.65
2018-09-09T03:33:55.822Z,8.76
2018-09-09T03:34:55.698Z,8.6
2018-09-09T03:35:55.686Z,8.68
2018-09-09T03:36:56.250Z,8.63
2018-09-09T03:37:55.681Z,8.67
2018-09-09T03:38:55.712Z,8.56
2018-09-09T03:39:55.681Z,8.58
2018-09-09T03:40:55.672Z,8.67
2018-09-09T03:41:55.762Z,8.63
2018-09-09T03:42:55.750Z,8.5
2018-09-09T03:43:55.956Z,8.51
2018-09-09T03:44:55.981Z,8.45
2018-09-09T03:45:55.797Z,8.53
2018-09-09T03:46:55.671Z,8.63
2018-09-09T03:47:55.675Z,8.61
2018-09-09T03:48:55.683Z,8.51
2018-09-09T03:49:55.663Z,8.59
2018-09-09T03:50:55.862Z,8.55
2018-09-09T03:51:55.703Z,8.5
2018-09-09T03:52:55.845Z,8.62
2018-09-09T03:53:55.689Z,8.59
2018-09-09T03:54:55.820Z,8.6
2018-09-09T03:55:55.716Z,8.54
2018-09-09T03:56:55.708Z,8.62
2018-09-09T03:57:55.783Z,8.53
2018-09-09T03:58:56.066Z,8.55
2018-09-09T03:59:55.699Z,8.56
2018-09-09T04:00:55.773Z,8.48
2018-09-09T04:01:55.677Z,8.51
2018-09-09T04:02:55.714Z,8.54
2018-09-09T04:03:56.096Z,8.57
2018-09-09T04:04:56.214Z,8.45
2018-09-09T04:05:55.667Z,8.45
2018-09-09T04:06:55.684Z,8.49
2018-09-09T04:07:55.709Z,8.43
2018-09-09T04:08:55.708Z,8.62
2018-09-09T04:09:56.077Z,8.53
2018-09-09T04:10:55.776Z,8.49
2018-09-09T04:11:55.732Z,8.55
2018-09-09T04:12:55.686Z,8.59
2018-09-09T04:13:55.741Z,8.5
2018-09-09T04:14:55.752Z,8.37
2018-09-09T04:15:55.827Z,8.43
2018-09-09T04:16:55.676Z,8.35
2018-09-09T04:17:55.724Z,8.43
2018-09-09T04:18:55.890Z,8.45
2018-09-09T04:19:55.673Z,8.44
2018-09-09T04:20:55.696Z,8.32
2018-09-09T04:21:55.707Z,8.42
2018-09-09T04:22:55.705Z,8.45
2018-09-09T04:23:55.709Z,8.39
2018-09-09T04:24:56.119Z,8.33
2018-09-09T04:25:55.715Z,8.39
2018-09-09T04:26:55.723Z,8.45
2018-09-09T04:27:55.692Z,8.4
2018-09-09T04:28:55.697Z,8.3
2018-09-09T04:29:55.730Z,8.44
2018-09-09T04:30:56.185Z,8.5
2018-09-09T04:31:55.721Z,8.4
2018-09-09T04:32:55.716Z,8.37
2018-09-09T04:33:55.711Z,8.34
2018-09-09T04:34:56.289Z,8.34
2018-09-09T04:35:55.697Z,8.44
2018-09-09T04:36:55.743Z,8.4
2018-09-09T04:37:55.716Z,8.4
2018-09-09T04:38:55.687Z,8.44
2018-09-09T04:39:55.760Z,8.33
2018-09-09T04:40:55.682Z,8.51
2018-09-09T04:41:55.724Z,8.55
2018-09-09T04:42:55.687Z,8.43
2018-09-09T04:43:55.754Z,8.42
2018-09-09T04:44:55.692Z,8.6
2018-09-09T04:45:55.727Z,8.4
2018-09-09T04:46:55.779Z,8.46
2018-09-09T04:47:55.712Z,8.45
2018-09-09T04:48:55.757Z,8.41
2018-09-09T04:49:55.727Z,8.37
2018-09-09T04:50:55.770Z,8.4
2018-09-09T04:51:55.700Z,8.41
2018-09-09T04:52:56.045Z,8.39
2018-09-09T04:53:55.734Z,8.46
2018-09-09T04:54:55.711Z,8.47
2018-09-09T04:55:55.729Z,8.46
2018-09-09T04:56:55.829Z,8.44
2018-09-09T04:57:55.685Z,8.33
2018-09-09T04:58:56.187Z,8.42
2018-09-09T04:59:55.767Z,8.34
2018-09-09T05:00:55.901Z,8.37
2018-09-09T05:01:55.805Z,8.41
2018-09-09T05:02:55.703Z,8.37
2018-09-09T05:03:55.700Z,8.4
2018-09-09T05:04:55.743Z,8.44
2018-09-09T05:05:55.996Z,8.44
2018-09-09T05:06:55.730Z,8.48
2018-09-09T05:07:55.744Z,8.41
2018-09-09T05:08:55.906Z,8.38
2018-09-09T05:09:56.228Z,8.45
2018-09-09T05:10:55.750Z,8.45
2018-09-09T05:11:55.751Z,8.36
2018-09-09T05:12:55.823Z,8.44
2018-09-09T05:13:55.957Z,8.45
2018-09-09T05:14:55.756Z,8.39
2018-09-09T05:15:56.108Z,8.37
2018-09-09T05:16:55.734Z,8.36
2018-09-09T05:17:55.720Z,8.26
2018-09-09T05:18:55.736Z,8.37
2018-09-09T05:19:55.774Z,8.32
2018-09-09T05:20:55.745Z,8.36
2018-09-09T05:21:55.824Z,8.29
2018-09-09T05:22:56.212Z,8.3
2018-09-09T05:23:55.754Z,8.43
2018-09-09T05:24:56.003Z,8.32
2018-09-09T05:25:55.845Z,8.32
2018-09-09T05:26:55.759Z,8.32
2018-09-09T05:27:55.738Z,8.36
2018-09-09T05:28:55.728Z,8.31
2018-09-09T05:29:55.719Z,8.36
2018-09-09T05:30:55.789Z,8.28
2018-09-09T05:31:55.720Z,8.45
2018-09-09T05:32:56.075Z,8.36
2018-09-09T05:33:55.777Z,8.35
2018-09-09T05:34:55.706Z,8.36
2018-09-09T05:35:55.849Z,8.36
2018-09-09T05:36:55.784Z,8.36
2018-09-09T05:37:55.838Z,8.42
2018-09-09T05:38:55.914Z,8.39
2018-09-09T05:39:56.468Z,8.48
2018-09-09T05:40:55.760Z,8.5
2018-09-09T05:41:55.847Z,8.51
2018-09-09T05:42:55.813Z,8.47
2018-09-09T05:43:56.011Z,8.48
2018-09-09T05:44:55.733Z,8.54
2018-09-09T05:45:55.749Z,8.51
2018-09-09T05:46:56.042Z,8.5
2018-09-09T05:47:55.814Z,8.52
2018-09-09T05:48:55.723Z,8.5
2018-09-09T05:49:55.899Z,8.48
2018-09-09T05:50:55.764Z,8.47
2018-09-09T05:51:56.143Z,8.53
2018-09-09T05:52:55.831Z,8.48
2018-09-09T05:53:56.269Z,8.47
2018-09-09T05:54:55.765Z,8.59
2018-09-09T05:55:56.175Z,8.53
2018-09-09T05:56:55.736Z,8.61
2018-09-09T05:57:55.737Z,8.58
2018-09-09T05:58:55.769Z,8.49
2018-09-09T05:59:55.733Z,8.61
2018-09-09T06:00:55.775Z,8.54
2018-09-09T06:01:55.749Z,8.59
2018-09-09T06:02:55.735Z,8.54
2018-09-09T06:03:55.727Z,8.6
2018-09-09T06:04:55.754Z,8.62
2018-09-09T06:05:55.825Z,8.57
2018-09-09T06:06:55.733Z,8.67
2018-09-09T06:07:56.373Z,8.54
2018-09-09T06:08:55.746Z,8.54
2018-09-09T06:09:55.737Z,8.56
2018-09-09T06:10:55.733Z,8.6
2018-09-09T06:11:55.829Z,8.57
2018-09-09T06:12:55.846Z,8.59
2018-09-09T06:13:55.784Z,8.72
2018-09-09T06:14:56.112Z,8.65
2018-09-09T06:15:55.848Z,8.71
2018-09-09T06:16:55.825Z,8.63
2018-09-09T06:17:55.777Z,8.69
2018-09-09T06:18:55.780Z,8.58
2018-09-09T06:19:55.814Z,8.63
2018-09-09T06:20:55.863Z,8.6
2018-09-09T06:21:55.773Z,8.58
2018-09-09T06:22:56.499Z,8.73
2018-09-09T06:23:55.745Z,8.69
2018-09-09T06:24:56.070Z,8.74
2018-09-09T06:25:55.766Z,8.69
2018-09-09T06:26:55.753Z,8.58
2018-09-09T06:27:55.774Z,8.73
2018-09-09T06:28:56.279Z,8.66
2018-09-09T06:29:55.795Z,8.68
2018-09-09T06:30:55.769Z,8.61
2018-09-09T06:31:56.005Z,8.64
2018-09-09T06:32:55.796Z,8.69
2018-09-09T06:33:56.444Z,8.68
2018-09-09T06:34:59.226Z,8.65
2018-09-09T06:35:55.770Z,8.69
2018-09-09T06:36:56.182Z,8.61
2018-09-09T06:37:55.768Z,8.85
2018-09-09T06:38:56.056Z,8.92
2018-09-09T06:39:55.773Z,8.89
2018-09-09T06:40:55.954Z,8.93
2018-09-09T06:41:55.845Z,8.9
2018-09-09T06:42:55.865Z,8.89
2018-09-09T06:43:55.753Z,8.93
2018-09-09T06:44:55.768Z,8.94
2018-09-09T06:45:55.824Z,9.04
2018-09-09T06:46:56.178Z,9.06
2018-09-09T06:47:55.843Z,9.14
2018-09-09T06:48:55.781Z,9.17
2018-09-09T06:49:55.776Z,9.13
2018-09-09T06:50:55.781Z,9.13
2018-09-09T06:51:55.837Z,9.11
2018-09-09T06:52:55.798Z,9.14
2018-09-09T06:53:55.886Z,9.18
2018-09-09T06:54:56.065Z,9.15
2018-09-09T06:55:55.788Z,9.18
2018-09-09T06:56:55.804Z,9.21
2018-09-09T06:57:55.804Z,9.25
2018-09-09T06:58:56.204Z,9.23
2018-09-09T06:59:56.040Z,9.24
2018-09-09T07:00:55.812Z,9.26
2018-09-09T07:01:56.215Z,9.33
2018-09-09T07:02:55.798Z,9.31
2018-09-09T07:03:56.432Z,9.38
2018-09-09T07:04:56.026Z,9.37
2018-09-09T07:05:55.796Z,9.35
2018-09-09T07:06:55.809Z,9.38
2018-09-09T07:07:55.996Z,9.38
2018-09-09T07:08:55.787Z,9.48
2018-09-09T07:09:55.996Z,9.39
2018-09-09T07:10:56.839Z,9.45
2018-09-09T07:11:57.782Z,9.47
2018-09-09T07:12:55.850Z,9.51
2018-09-09T07:13:56.124Z,9.48
2018-09-09T07:14:55.782Z,9.5
2018-09-09T07:15:55.831Z,9.49
2018-09-09T07:16:55.902Z,9.49
2018-09-09T07:17:55.783Z,9.51
2018-09-09T07:18:55.956Z,9.49
2018-09-09T07:19:55.784Z,9.48
2018-09-09T07:20:55.796Z,9.57
2018-09-09T07:21:55.800Z,9.59
2018-09-09T07:22:55.803Z,9.62
2018-09-09T07:23:55.771Z,9.63
2018-09-09T07:24:55.782Z,9.74
2018-09-09T07:25:55.807Z,9.76
2018-09-09T07:26:56.753Z,9.69
2018-09-09T07:27:55.801Z,9.72
2018-09-09T07:28:55.879Z,9.61
2018-09-09T07:29:55.786Z,9.71
2018-09-09T07:30:55.847Z,9.69
2018-09-09T07:31:55.820Z,9.76
2018-09-09T07:32:55.887Z,9.81
2018-09-09T07:33:56.200Z,9.81
2018-09-09T07:34:56.071Z,9.76
2018-09-09T07:35:55.843Z,9.73
2018-09-09T07:36:55.816Z,9.66
2018-09-09T07:37:56.004Z,9.67
2018-09-09T07:38:55.840Z,9.61
2018-09-09T07:39:55.863Z,9.66
2018-09-09T07:40:55.779Z,9.62
2018-09-09T07:41:56.389Z,9.72
2018-09-09T07:42:55.880Z,9.74
2018-09-09T07:43:56.163Z,9.7
2018-09-09T07:44:55.968Z,9.77
2018-09-09T07:45:55.877Z,9.77
2018-09-09T07:46:56.035Z,9.85
2018-09-09T07:47:55.901Z,9.92
2018-09-09T07:48:55.882Z,9.96
2018-09-09T07:49:55.832Z,10.01
2018-09-09T07:50:56.192Z,10.06
2018-09-09T07:51:55.859Z,10.01
2018-09-09T07:52:55.823Z,10.12
2018-09-09T07:53:56.540Z,10.19
2018-09-09T07:54:55.956Z,10.1
2018-09-09T07:55:55.874Z,10.24
2018-09-09T07:56:55.814Z,10.26
2018-09-09T07:57:56.295Z,10.21
2018-09-09T07:58:55.885Z,10.23
2018-09-09T07:59:55.798Z,10.18
2018-09-09T08:00:55.934Z,10.23
2018-09-09T08:01:55.838Z,10.27
2018-09-09T08:02:55.847Z,10.31
2018-09-09T08:03:55.823Z,10.34
2018-09-09T08:04:55.804Z,10.21
2018-09-09T08:05:55.927Z,10.26
2018-09-09T08:06:55.902Z,10.3
2018-09-09T08:07:55.845Z,10.3
2018-09-09T08:08:55.816Z,10.39
2018-09-09T08:09:55.807Z,10.35
2018-09-09T08:10:55.993Z,10.3
2018-09-09T08:11:56.119Z,10.29
2018-09-09T08:12:55.858Z,10.32
2018-09-09T08:13:55.877Z,10.36
2018-09-09T08:14:55.827Z,10.35
2018-09-09T08:15:55.801Z,10.33
2018-09-09T08:16:55.826Z,10.41
2018-09-09T08:17:55.811Z,10.43
2018-09-09T08:18:56.222Z,10.55
2018-09-09T08:19:56.462Z,10.48
2018-09-09T08:20:55.814Z,10.54
2018-09-09T08:21:56.245Z,10.54
2018-09-09T08:22:55.850Z,10.55
2018-09-09T08:23:55.837Z,10.41
2018-09-09T08:24:56.069Z,10.42
2018-09-09T08:25:56.038Z,10.44
2018-09-09T08:26:56.024Z,10.5
2018-09-09T08:27:55.855Z,10.58
2018-09-09T08:28:56.071Z,10.5
2018-09-09T08:29:55.967Z,10.61
2018-09-09T08:30:55.861Z,10.67
2018-09-09T08:31:56.250Z,10.7
2018-09-09T08:32:55.863Z,10.71
2018-09-09T08:33:55.819Z,10.78
2018-09-09T08:34:56.676Z,10.71
2018-09-09T08:35:55.812Z,10.76
2018-09-09T08:36:55.942Z,10.77
2018-09-09T08:37:56.064Z,10.78
2018-09-09T08:38:55.823Z,10.82
2018-09-09T08:39:55.827Z,10.84
2018-09-09T08:40:55.881Z,10.84
2018-09-09T08:41:55.816Z,10.82
2018-09-09T08:42:56.012Z,10.79
2018-09-09T08:43:55.819Z,10.76
2018-09-09T08:44:55.855Z,10.71
2018-09-09T08:45:55.833Z,10.77
2018-09-09T08:46:55.831Z,10.82
2018-09-09T08:47:55.860Z,10.86
2018-09-09T08:48:55.823Z,10.81
2018-09-09T08:49:55.852Z,10.79
2018-09-09T08:50:55.868Z,10.79
2018-09-09T08:51:56.415Z,10.8
2018-09-09T08:52:55.903Z,10.84
2018-09-09T08:53:55.914Z,11.06
2018-09-09T08:54:55.830Z,10.97
2018-09-09T08:55:56.047Z,10.9
2018-09-09T08:56:55.935Z,10.69
2018-09-09T08:57:55.884Z,10.78
2018-09-09T08:58:55.840Z,10.69
2018-09-09T08:59:55.828Z,10.67
2018-09-09T09:00:55.889Z,10.75
2018-09-09T09:01:55.822Z,10.67
2018-09-09T09:02:55.860Z,10.72
2018-09-09T09:04:03.092Z,10.82
2018-09-09T09:04:56.044Z,10.92
2018-09-09T09:05:56.072Z,10.92
2018-09-09T09:06:56.108Z,10.9
2018-09-09T09:07:56.725Z,10.91
2018-09-09T09:08:56.650Z,10.76
2018-09-09T09:09:55.863Z,10.87
2018-09-09T09:10:55.903Z,10.85
2018-09-09T09:11:55.902Z,10.86
2018-09-09T09:12:56.022Z,10.86
2018-09-09T09:13:56.336Z,10.85
2018-09-09T09:14:55.904Z,10.78
2018-09-09T09:15:56.143Z,10.82
2018-09-09T09:16:56.120Z,10.84
2018-09-09T09:17:55.842Z,10.84
2018-09-09T09:18:55.869Z,10.89
2018-09-09T09:19:56.040Z,10.89
2018-09-09T09:20:56.390Z,10.95
2018-09-09T09:21:55.931Z,10.92
2018-09-09T09:22:56.043Z,10.87
2018-09-09T09:23:56.006Z,10.79
2018-09-09T09:24:55.973Z,10.81
2018-09-09T09:25:56.008Z,10.92
2018-09-09T09:26:56.284Z,11
2018-09-09T09:27:55.927Z,11
2018-09-09T09:28:55.858Z,10.77
2018-09-09T09:29:55.956Z,10.88
2018-09-09T09:30:55.903Z,10.77
2018-09-09T09:31:56.059Z,10.8
2018-09-09T09:32:55.834Z,10.74
2018-09-09T09:33:56.073Z,10.86
2018-09-09T09:34:56.046Z,10.98
2018-09-09T09:35:55.854Z,10.94
2018-09-09T09:36:55.915Z,11
2018-09-09T09:37:55.923Z,10.99
2018-09-09T09:38:56.270Z,10.86
2018-09-09T09:39:55.908Z,10.85
2018-09-09T09:40:56.118Z,10.87
2018-09-09T09:41:56.449Z,10.94
2018-09-09T09:42:56.066Z,10.88
2018-09-09T09:43:55.861Z,10.87
2018-09-09T09:44:56.230Z,10.96
2018-09-09T09:45:55.846Z,10.83
2018-09-09T09:46:56.103Z,10.84
2018-09-09T09:47:55.887Z,10.85
2018-09-09T09:48:55.856Z,10.77
2018-09-09T09:49:56.095Z,10.64
2018-09-09T09:50:55.837Z,10.75
2018-09-09T09:51:55.886Z,10.73
2018-09-09T09:52:56.024Z,10.78
2018-09-09T09:53:56.095Z,10.92
2018-09-09T09:54:56.118Z,10.97
2018-09-09T09:55:55.881Z,11.01
2018-09-09T09:56:56.022Z,11
2018-09-09T09:57:56.108Z,11.08
2018-09-09T09:58:55.862Z,11.02
2018-09-09T09:59:55.904Z,11.15
2018-09-09T10:00:55.892Z,11.22
2018-09-09T10:01:56.048Z,10.96
2018-09-09T10:02:56.133Z,10.85
2018-09-09T10:03:55.870Z,10.78
2018-09-09T10:04:56.183Z,10.85
2018-09-09T10:05:55.922Z,10.68
2018-09-09T10:06:55.865Z,10.63
2018-09-09T10:07:55.871Z,10.62
2018-09-09T10:08:56.216Z,10.77
2018-09-09T10:09:55.899Z,10.93
2018-09-09T10:10:55.992Z,10.85
2018-09-09T10:11:55.942Z,11
2018-09-09T10:12:55.930Z,10.99
2018-09-09T10:13:56.006Z,10.77
2018-09-09T10:14:55.948Z,10.82
2018-09-09T10:15:55.968Z,10.71
2018-09-09T10:16:55.884Z,10.77
2018-09-09T10:17:55.878Z,10.96
2018-09-09T10:18:56.344Z,11.1
2018-09-09T10:19:55.908Z,10.89
2018-09-09T10:20:55.894Z,11.01
2018-09-09T10:21:55.872Z,10.99
2018-09-09T10:22:55.898Z,11.28
2018-09-09T10:23:56.683Z,11.2
2018-09-09T10:24:55.973Z,11.24
2018-09-09T10:25:55.914Z,11.24
2018-09-09T10:26:56.062Z,11.01
2018-09-09T10:27:56.080Z,11.17
2018-09-09T10:28:55.955Z,10.94
2018-09-09T10:29:57.330Z,11
2018-09-09T10:30:56.829Z,11.01
2018-09-09T10:31:55.948Z,11.07
2018-09-09T10:32:56.097Z,11.08
2018-09-09T10:33:56.771Z,11.12
2018-09-09T10:34:56.892Z,11.25
2018-09-09T10:35:56.941Z,10.96
2018-09-09T10:36:55.897Z,10.99
2018-09-09T10:37:56.048Z,11.33
2018-09-09T10:38:57.549Z,11.27
2018-09-09T10:39:55.912Z,11.23
2018-09-09T10:40:57.060Z,10.98
2018-09-09T10:41:56.097Z,11.1
2018-09-09T10:42:55.976Z,11.11
2018-09-09T10:43:56.068Z,11.17
2018-09-09T10:44:56.067Z,11.12
2018-09-09T10:45:56.840Z,11.26
2018-09-09T10:46:57.592Z,11.31
2018-09-09T10:47:56.853Z,10.91
2018-09-09T10:48:56.851Z,11.2
2018-09-09T10:49:56.863Z,10.81
2018-09-09T10:50:56.845Z,10.96
2018-09-09T10:51:56.026Z,11.06
2018-09-09T10:52:56.108Z,11.1
2018-09-09T10:53:56.663Z,11.04
2018-09-09T10:54:57.609Z,11.04
2018-09-09T10:55:55.920Z,11.06
2018-09-09T10:56:56.058Z,11.34
2018-09-09T10:57:56.802Z,11.12
2018-09-09T10:58:57.113Z,10.78
2018-09-09T10:59:56.082Z,10.82
2018-09-09T11:00:56.092Z,11.05
2018-09-09T11:01:56.053Z,11.13
2018-09-09T11:02:56.050Z,11.35
2018-09-09T11:03:56.045Z,11.13
2018-09-09T11:04:56.870Z,11.17
2018-09-09T11:05:56.048Z,11.3
2018-09-09T11:06:57.363Z,10.71
2018-09-09T11:07:56.079Z,10.66
2018-09-09T11:08:56.041Z,10.73
2018-09-09T11:09:55.945Z,10.64
2018-09-09T11:10:55.960Z,10.61
2018-09-09T11:11:56.683Z,10.69
2018-09-09T11:12:58.142Z,10.92
2018-09-09T11:13:55.976Z,10.92
2018-09-09T11:14:55.978Z,11.01
2018-09-09T11:15:56.851Z,11.16
2018-09-09T11:16:56.865Z,11.2
2018-09-09T11:17:56.110Z,11.2
2018-09-09T11:18:56.959Z,11.01
2018-09-09T11:19:57.341Z,10.88
2018-09-09T11:20:56.093Z,11.03
2018-09-09T11:21:55.958Z,11.12
2018-09-09T11:22:56.107Z,10.99
2018-09-09T11:23:56.645Z,10.79
2018-09-09T11:24:56.087Z,10.93
2018-09-09T11:25:57.147Z,10.91
2018-09-09T11:26:56.139Z,11
2018-09-09T11:27:56.007Z,10.92
2018-09-09T11:28:56.013Z,10.87
2018-09-09T11:29:56.508Z,11.03
2018-09-09T11:30:58.032Z,11.01
2018-09-09T11:31:56.024Z,10.92
2018-09-09T11:32:55.923Z,11.14
2018-09-09T11:33:55.950Z,11.36
2018-09-09T11:34:56.114Z,11.41
2018-09-09T11:35:56.094Z,11.51
2018-09-09T11:36:56.029Z,11.53
2018-09-09T11:37:55.944Z,11.37
2018-09-09T11:38:56.127Z,11.49
2018-09-09T11:39:55.976Z,11.59
2018-09-09T11:40:56.117Z,11.38
2018-09-09T11:41:56.056Z,11.35
2018-09-09T11:42:56.009Z,11.36
2018-09-09T11:43:56.075Z,11.49
2018-09-09T11:44:56.318Z,11.54
2018-09-09T11:45:55.988Z,11.25
2018-09-09T11:46:56.142Z,10.97
2018-09-09T11:47:55.973Z,10.53
2018-09-09T11:48:56.020Z,10.74
2018-09-09T11:49:56.233Z,10.79
2018-09-09T11:50:56.009Z,10.81
2018-09-09T11:51:56.024Z,10.96
2018-09-09T11:52:55.965Z,11.14
2018-09-09T11:53:56.059Z,11.05
2018-09-09T11:54:56.182Z,11.1
2018-09-09T11:55:57.149Z,11.16
2018-09-09T11:56:57.344Z,11.12
2018-09-09T11:57:56.051Z,11.15
2018-09-09T11:58:56.436Z,10.82
2018-09-09T11:59:55.985Z,11.18
2018-09-09T12:00:56.090Z,11.11
2018-09-09T12:01:56.105Z,11.12
2018-09-09T12:02:56.238Z,11.27
2018-09-09T12:03:56.208Z,11.06
2018-09-09T12:04:56.264Z,11.26
2018-09-09T12:05:56.187Z,11.18
2018-09-09T12:06:56.148Z,11.25
2018-09-09T12:07:56.104Z,11.25
2018-09-09T12:08:56.045Z,11.49
2018-09-09T12:09:56.056Z,11.41
2018-09-09T12:10:56.154Z,11.55
2018-09-09T12:11:56.164Z,11.28
2018-09-09T12:12:56.374Z,11.26
2018-09-09T12:13:56.211Z,10.78
2018-09-09T12:14:56.191Z,10.45
2018-09-09T12:15:56.292Z,9.44
2018-09-09T12:16:56.110Z,9.69
2018-09-09T12:17:56.274Z,9.58
2018-09-09T12:18:56.432Z,9.57
2018-09-09T12:19:57.670Z,9.36
2018-09-09T12:20:56.034Z,9.07
2018-09-09T12:21:55.959Z,8.69
2018-09-09T12:22:56.459Z,8.93
2018-09-09T12:23:57.080Z,9.12
2018-09-09T12:24:56.182Z,9.57
2018-09-09T12:25:56.028Z,9.67
2018-09-09T12:26:56.163Z,9.81
2018-09-09T12:27:56.204Z,10.02
2018-09-09T12:28:56.256Z,9.3
2018-09-09T12:29:56.162Z,8.83
2018-09-09T12:30:56.209Z,9.07
2018-09-09T12:31:55.992Z,9.3
2018-09-09T12:32:56.120Z,9.31
2018-09-09T12:33:56.001Z,9.39
2018-09-09T12:34:56.634Z,9.1
2018-09-09T12:35:56.718Z,9.56
2018-09-09T12:36:56.232Z,9.64
2018-09-09T12:37:55.967Z,9.93
2018-09-09T12:38:56.220Z,9.69
2018-09-09T12:39:56.213Z,9.71
2018-09-09T12:40:56.046Z,9.8
2018-09-09T12:41:56.343Z,9.52
2018-09-09T12:42:56.069Z,9.67
2018-09-09T12:43:56.075Z,9.61
2018-09-09T12:44:56.115Z,9.29
2018-09-09T12:45:56.189Z,9.72
2018-09-09T12:46:56.197Z,9.98
2018-09-09T12:47:56.083Z,9.84
2018-09-09T12:48:56.261Z,9.76
2018-09-09T12:49:56.222Z,10.05
2018-09-09T12:50:57.967Z,9.99
2018-09-09T12:51:56.150Z,9.49
2018-09-09T12:52:56.088Z,9.72
2018-09-09T12:53:56.040Z,9.78
2018-09-09T12:54:56.055Z,9.72
2018-09-09T12:55:56.075Z,9.4
2018-09-09T12:56:56.170Z,9.24
2018-09-09T12:57:55.974Z,9.54
2018-09-09T12:58:56.044Z,9.77
2018-09-09T12:59:56.082Z,9.54
2018-09-09T13:00:56.189Z,9.36
2018-09-09T13:01:56.042Z,9.56
2018-09-09T13:02:56.002Z,9.75
2018-09-09T13:03:56.068Z,9.68
2018-09-09T13:04:56.131Z,9.2
2018-09-09T13:05:56.324Z,9.6
2018-09-09T13:06:56.676Z,9.06
2018-09-09T13:07:56.152Z,8.81
2018-09-09T13:08:56.148Z,8.66
2018-09-09T13:09:56.079Z,8.69
2018-09-09T13:10:56.018Z,8.67
2018-09-09T13:11:56.394Z,8.7
2018-09-09T13:12:56.030Z,9.37